All Healing Springs, North Carolina
Current Conditions -  °F | °C
As of 8:53 AM on Sunday 23 Nov 2014 (Local Time) from KHKY Reporting Station
Light Rain Light Rain  
Wind Chill: 43°   Ceiling: 1400
Heat Index: 43°   Visibility: 7mi
Dew Point: 36°   Wind: 0mph
Humidity: 76%   Direction: NA
Pressure: 30.2"   Gusts: NA
Location:  35.9243°N, 81.216°W
Report Text: KHKY 231353Z AUTO 00000KT 7SM -RA OVC014 06/02 A3020 RMK AO2 SLP219 P0001 T00610022
Loading
Personal Weather Stations






























Interactive Weather Map New forecast layout! Learn more

10-Day Weather Forecast

Advertisements
Track Severe Weather on mobile